sensor_id;sensor_type;location;lat;lon;timestamp;P1;durP1;ratioP1;P2;durP2;ratioP2
44026;SDS011;29696;55.698;37.460;2023-07-28T00:01:54;15.75;;;12.65;;
44026;SDS011;29696;55.698;37.460;2023-07-28T00:04:21;14.68;;;13.07;;
44026;SDS011;29696;55.698;37.460;2023-07-28T00:06:47;14.98;;;12.85;;
44026;SDS011;29696;55.698;37.460;2023-07-28T00:09:14;16.48;;;13.27;;
44026;SDS011;29696;55.698;37.460;2023-07-28T00:11:40;17.52;;;12.85;;
44026;SDS011;29696;55.698;37.460;2023-07-28T00:14:06;16.33;;;13.23;;
44026;SDS011;29696;55.698;37.460;2023-07-28T00:16:33;16.40;;;13.30;;
44026;SDS011;29696;55.698;37.460;2023-07-28T00:18:59;16.85;;;13.73;;
44026;SDS011;29696;55.698;37.460;2023-07-28T00:21:26;18.17;;;13.05;;
44026;SDS011;29696;55.698;37.460;2023-07-28T00:23:53;14.52;;;13.18;;
44026;SDS011;29696;55.698;37.460;2023-07-28T00:26:19;17.75;;;13.98;;
44026;SDS011;29696;55.698;37.460;2023-07-28T00:28:45;13.43;;;12.02;;
44026;SDS011;29696;55.698;37.460;2023-07-28T00:31:13;18.15;;;15.18;;
44026;SDS011;29696;55.698;37.460;2023-07-28T00:33:40;19.55;;;15.10;;
44026;SDS011;29696;55.698;37.460;2023-07-28T00:36:06;16.98;;;13.63;;
44026;SDS011;29696;55.698;37.460;2023-07-28T00:38:33;16.15;;;14.55;;
44026;SDS011;29696;55.698;37.460;2023-07-28T00:40:59;16.38;;;13.02;;
44026;SDS011;29696;55.698;37.460;2023-07-28T00:43:26;15.30;;;13.70;;
44026;SDS011;29696;55.698;37.460;2023-07-28T00:45:52;15.15;;;13.45;;
44026;SDS011;29696;55.698;37.460;2023-07-28T00:48:19;15.57;;;13.65;;
44026;SDS011;29696;55.698;37.460;2023-07-28T00:50:47;15.82;;;14.10;;
44026;SDS011;29696;55.698;37.460;2023-07-28T00:53:15;17.02;;;14.63;;
44026;SDS011;29696;55.698;37.460;2023-07-28T00:55:42;21.27;;;14.35;;
44026;SDS011;29696;55.698;37.460;2023-07-28T00:58:08;16.80;;;14.50;;
44026;SDS011;29696;55.698;37.460;2023-07-28T01:00:35;17.13;;;15.43;;
44026;SDS011;29696;55.698;37.460;2023-07-28T01:03:02;20.77;;;14.50;;
44026;SDS011;29696;55.698;37.460;2023-07-28T01:05:42;18.30;;;15.40;;
44026;SDS011;29696;55.698;37.460;2023-07-28T01:11:22;21.38;;;15.38;;
44026;SDS011;29696;55.698;37.460;2023-07-28T01:13:49;18.05;;;16.23;;
44026;SDS011;29696;55.698;37.460;2023-07-28T01:16:15;20.63;;;16.85;;
44026;SDS011;29696;55.698;37.460;2023-07-28T01:18:42;19.73;;;16.25;;
44026;SDS011;29696;55.698;37.460;2023-07-28T01:21:09;17.85;;;16.00;;
44026;SDS011;29696;55.698;37.460;2023-07-28T01:27:13;20.77;;;16.75;;
44026;SDS011;29696;55.698;37.460;2023-07-28T01:29:40;17.88;;;15.15;;
44026;SDS011;29696;55.698;37.460;2023-07-28T01:32:06;19.77;;;15.63;;
44026;SDS011;29696;55.698;37.460;2023-07-28T01:34:33;21.77;;;17.05;;
44026;SDS011;29696;55.698;37.460;2023-07-28T01:36:59;18.17;;;16.27;;
44026;SDS011;29696;55.698;37.460;2023-07-28T01:39:26;19.23;;;16.05;;
44026;SDS011;29696;55.698;37.460;2023-07-28T01:41:52;17.58;;;15.68;;
44026;SDS011;29696;55.698;37.460;2023-07-28T01:44:18;19.02;;;16.65;;
44026;SDS011;29696;55.698;37.460;2023-07-28T01:46:45;18.45;;;15.18;;
44026;SDS011;29696;55.698;37.460;2023-07-28T01:49:11;18.77;;;16.83;;
44026;SDS011;29696;55.698;37.460;2023-07-28T01:51:38;17.50;;;15.70;;
44026;SDS011;29696;55.698;37.460;2023-07-28T01:54:04;18.52;;;16.50;;
44026;SDS011;29696;55.698;37.460;2023-07-28T01:56:31;17.80;;;15.85;;
44026;SDS011;29696;55.698;37.460;2023-07-28T01:58:58;17.00;;;15.30;;
44026;SDS011;29696;55.698;37.460;2023-07-28T02:01:25;19.63;;;14.48;;
44026;SDS011;29696;55.698;37.460;2023-07-28T02:03:51;21.25;;;13.98;;
44026;SDS011;29696;55.698;37.460;2023-07-28T02:06:17;17.83;;;15.93;;
44026;SDS011;29696;55.698;37.460;2023-07-28T02:08:44;19.92;;;14.23;;
44026;SDS011;29696;55.698;37.460;2023-07-28T02:11:11;15.77;;;14.18;;
44026;SDS011;29696;55.698;37.460;2023-07-28T02:13:37;14.98;;;13.48;;
44026;SDS011;29696;55.698;37.460;2023-07-28T02:16:04;16.73;;;13.95;;
44026;SDS011;29696;55.698;37.460;2023-07-28T02:18:31;14.80;;;13.27;;
44026;SDS011;29696;55.698;37.460;2023-07-28T02:20:57;17.02;;;13.95;;
44026;SDS011;29696;55.698;37.460;2023-07-28T02:23:23;14.30;;;12.95;;
44026;SDS011;29696;55.698;37.460;2023-07-28T02:25:50;18.75;;;15.13;;
44026;SDS011;29696;55.698;37.460;2023-07-28T02:28:16;15.77;;;14.13;;
44026;SDS011;29696;55.698;37.460;2023-07-28T02:30:43;14.95;;;12.88;;
44026;SDS011;29696;55.698;37.460;2023-07-28T02:33:09;15.38;;;13.73;;
44026;SDS011;29696;55.698;37.460;2023-07-28T02:35:36;16.30;;;13.65;;
44026;SDS011;29696;55.698;37.460;2023-07-28T02:38:02;14.77;;;13.15;;
44026;SDS011;29696;55.698;37.460;2023-07-28T02:40:28;14.95;;;13.10;;
44026;SDS011;29696;55.698;37.460;2023-07-28T02:42:55;15.23;;;13.63;;
44026;SDS011;29696;55.698;37.460;2023-07-28T02:45:22;16.48;;;13.70;;
44026;SDS011;29696;55.698;37.460;2023-07-28T02:47:50;16.70;;;13.30;;
44026;SDS011;29696;55.698;37.460;2023-07-28T02:50:17;16.33;;;13.13;;
44026;SDS011;29696;55.698;37.460;2023-07-28T02:52:44;16.67;;;13.48;;
44026;SDS011;29696;55.698;37.460;2023-07-28T02:55:11;15.70;;;13.93;;
44026;SDS011;29696;55.698;37.460;2023-07-28T02:57:37;15.52;;;12.88;;
44026;SDS011;29696;55.698;37.460;2023-07-28T03:00:04;15.45;;;13.38;;
44026;SDS011;29696;55.698;37.460;2023-07-28T03:02:33;15.68;;;13.75;;
44026;SDS011;29696;55.698;37.460;2023-07-28T03:05:00;15.85;;;13.82;;
44026;SDS011;29696;55.698;37.460;2023-07-28T03:07:43;18.95;;;12.10;;
44026;SDS011;29696;55.698;37.460;2023-07-28T03:10:13;15.32;;;12.75;;
44026;SDS011;29696;55.698;37.460;2023-07-28T03:12:43;15.68;;;13.00;;
44026;SDS011;29696;55.698;37.460;2023-07-28T03:15:10;12.75;;;11.55;;
44026;SDS011;29696;55.698;37.460;2023-07-28T03:17:36;13.95;;;12.65;;
44026;SDS011;29696;55.698;37.460;2023-07-28T03:20:02;15.13;;;12.80;;
44026;SDS011;29696;55.698;37.460;2023-07-28T03:22:29;14.98;;;12.45;;
44026;SDS011;29696;55.698;37.460;2023-07-28T03:24:56;12.45;;;11.15;;
44026;SDS011;29696;55.698;37.460;2023-07-28T03:27:23;13.93;;;12.52;;
44026;SDS011;29696;55.698;37.460;2023-07-28T03:29:51;13.02;;;11.77;;
44026;SDS011;29696;55.698;37.460;2023-07-28T03:32:20;19.50;;;16.20;;
44026;SDS011;29696;55.698;37.460;2023-07-28T03:34:47;13.90;;;12.50;;
44026;SDS011;29696;55.698;37.460;2023-07-28T03:37:17;20.60;;;12.85;;
44026;SDS011;29696;55.698;37.460;2023-07-28T03:39:45;14.45;;;12.95;;
44026;SDS011;29696;55.698;37.460;2023-07-28T03:42:11;13.55;;;12.25;;
44026;SDS011;29696;55.698;37.460;2023-07-28T03:44:39;14.25;;;10.90;;
44026;SDS011;29696;55.698;37.460;2023-07-28T03:47:07;13.07;;;11.35;;
44026;SDS011;29696;55.698;37.460;2023-07-28T03:49:34;13.98;;;12.60;;
44026;SDS011;29696;55.698;37.460;2023-07-28T03:52:01;13.90;;;12.50;;
44026;SDS011;29696;55.698;37.460;2023-07-28T03:54:27;15.98;;;13.35;;
44026;SDS011;29696;55.698;37.460;2023-07-28T03:56:53;18.30;;;13.85;;
44026;SDS011;29696;55.698;37.460;2023-07-28T03:59:20;17.35;;;13.50;;
44026;SDS011;29696;55.698;37.460;2023-07-28T04:01:46;14.93;;;12.82;;
44026;SDS011;29696;55.698;37.460;2023-07-28T04:04:13;14.23;;;12.07;;
44026;SDS011;29696;55.698;37.460;2023-07-28T04:06:41;14.15;;;12.43;;
44026;SDS011;29696;55.698;37.460;2023-07-28T04:09:27;13.90;;;12.45;;
44026;SDS011;29696;55.698;37.460;2023-07-28T04:11:54;17.75;;;13.35;;
44026;SDS011;29696;55.698;37.460;2023-07-28T04:14:20;17.48;;;13.40;;
44026;SDS011;29696;55.698;37.460;2023-07-28T04:16:46;14.27;;;12.60;;
44026;SDS011;29696;55.698;37.460;2023-07-28T04:19:13;18.15;;;12.40;;
44026;SDS011;29696;55.698;37.460;2023-07-28T04:21:39;14.52;;;13.10;;
44026;SDS011;29696;55.698;37.460;2023-07-28T04:24:06;16.17;;;12.18;;
44026;SDS011;29696;55.698;37.460;2023-07-28T04:26:36;16.35;;;14.70;;
44026;SDS011;29696;55.698;37.460;2023-07-28T04:29:04;16.30;;;14.10;;
44026;SDS011;29696;55.698;37.460;2023-07-28T04:31:31;15.57;;;13.32;;
44026;SDS011;29696;55.698;37.460;2023-07-28T04:34:03;16.42;;;14.70;;
44026;SDS011;29696;55.698;37.460;2023-07-28T04:36:50;15.00;;;13.50;;
44026;SDS011;29696;55.698;37.460;2023-07-28T04:39:20;15.15;;;13.55;;
44026;SDS011;29696;55.698;37.460;2023-07-28T04:41:47;18.42;;;14.40;;
44026;SDS011;29696;55.698;37.460;2023-07-28T04:44:13;17.35;;;15.65;;
44026;SDS011;29696;55.698;37.460;2023-07-28T04:46:47;17.77;;;14.65;;
44026;SDS011;29696;55.698;37.460;2023-07-28T04:49:16;17.83;;;15.70;;
44026;SDS011;29696;55.698;37.460;2023-07-28T04:54:56;15.35;;;13.40;;
44026;SDS011;29696;55.698;37.460;2023-07-28T04:57:23;17.13;;;13.88;;
44026;SDS011;29696;55.698;37.460;2023-07-28T04:59:49;15.65;;;13.98;;
44026;SDS011;29696;55.698;37.460;2023-07-28T05:02:16;15.80;;;13.52;;
44026;SDS011;29696;55.698;37.460;2023-07-28T05:04:42;15.07;;;13.52;;
44026;SDS011;29696;55.698;37.460;2023-07-28T05:07:09;19.80;;;13.38;;
44026;SDS011;29696;55.698;37.460;2023-07-28T05:09:35;17.40;;;13.88;;
44026;SDS011;29696;55.698;37.460;2023-07-28T05:12:01;15.13;;;13.65;;
44026;SDS011;29696;55.698;37.460;2023-07-28T05:14:32;13.93;;;12.48;;
44026;SDS011;29696;55.698;37.460;2023-07-28T05:16:58;15.10;;;12.65;;
44026;SDS011;29696;55.698;37.460;2023-07-28T05:19:40;14.73;;;13.32;;
44026;SDS011;29696;55.698;37.460;2023-07-28T05:22:30;14.98;;;13.38;;
44026;SDS011;29696;55.698;37.460;2023-07-28T05:24:57;16.20;;;14.60;;
44026;SDS011;29696;55.698;37.460;2023-07-28T05:27:28;15.35;;;13.85;;
44026;SDS011;29696;55.698;37.460;2023-07-28T05:29:54;20.55;;;14.25;;
44026;SDS011;29696;55.698;37.460;2023-07-28T05:32:20;15.65;;;14.07;;
44026;SDS011;29696;55.698;37.460;2023-07-28T05:35:07;18.17;;;13.48;;
44026;SDS011;29696;55.698;37.460;2023-07-28T05:37:34;21.92;;;18.42;;
44026;SDS011;29696;55.698;37.460;2023-07-28T05:40:00;18.00;;;16.15;;
44026;SDS011;29696;55.698;37.460;2023-07-28T05:42:29;16.10;;;12.05;;
44026;SDS011;29696;55.698;37.460;2023-07-28T05:44:56;17.60;;;11.98;;
44026;SDS011;29696;55.698;37.460;2023-07-28T05:47:22;14.95;;;13.40;;
44026;SDS011;29696;55.698;37.460;2023-07-28T05:49:49;13.07;;;11.77;;
44026;SDS011;29696;55.698;37.460;2023-07-28T05:52:15;15.93;;;11.15;;
44026;SDS011;29696;55.698;37.460;2023-07-28T05:54:42;20.85;;;11.50;;
44026;SDS011;29696;55.698;37.460;2023-07-28T05:57:08;22.15;;;12.00;;
44026;SDS011;29696;55.698;37.460;2023-07-28T05:59:35;15.98;;;11.52;;
44026;SDS011;29696;55.698;37.460;2023-07-28T06:02:02;12.75;;;11.50;;
44026;SDS011;29696;55.698;37.460;2023-07-28T06:04:43;13.30;;;12.02;;
44026;SDS011;29696;55.698;37.460;2023-07-28T06:07:10;18.23;;;10.52;;
44026;SDS011;29696;55.698;37.460;2023-07-28T06:09:37;13.82;;;10.75;;
44026;SDS011;29696;55.698;37.460;2023-07-28T06:12:04;15.80;;;12.50;;
44026;SDS011;29696;55.698;37.460;2023-07-28T06:14:31;19.67;;;11.52;;
44026;SDS011;29696;55.698;37.460;2023-07-28T06:16:58;12.85;;;10.10;;
44026;SDS011;29696;55.698;37.460;2023-07-28T06:19:29;11.45;;;9.02;;
44026;SDS011;29696;55.698;37.460;2023-07-28T06:21:55;13.38;;;9.52;;
44026;SDS011;29696;55.698;37.460;2023-07-28T06:24:22;14.65;;;8.20;;
44026;SDS011;29696;55.698;37.460;2023-07-28T06:26:49;11.77;;;10.18;;
44026;SDS011;29696;55.698;37.460;2023-07-28T06:29:16;11.38;;;8.15;;
44026;SDS011;29696;55.698;37.460;2023-07-28T06:31:43;11.93;;;8.45;;
44026;SDS011;29696;55.698;37.460;2023-07-28T06:34:09;10.60;;;8.07;;
44026;SDS011;29696;55.698;37.460;2023-07-28T06:36:35;11.68;;;8.40;;
44026;SDS011;29696;55.698;37.460;2023-07-28T06:39:02;9.68;;;8.32;;
44026;SDS011;29696;55.698;37.460;2023-07-28T06:41:28;11.98;;;9.70;;
44026;SDS011;29696;55.698;37.460;2023-07-28T06:44:00;17.88;;;9.07;;
44026;SDS011;29696;55.698;37.460;2023-07-28T06:46:28;12.02;;;9.13;;
44026;SDS011;29696;55.698;37.460;2023-07-28T06:48:56;18.23;;;10.07;;
44026;SDS011;29696;55.698;37.460;2023-07-28T06:51:23;11.23;;;9.45;;
44026;SDS011;29696;55.698;37.460;2023-07-28T06:53:49;10.77;;;8.60;;
44026;SDS011;29696;55.698;37.460;2023-07-28T06:56:16;13.65;;;9.23;;
44026;SDS011;29696;55.698;37.460;2023-07-28T06:58:43;13.23;;;9.95;;
44026;SDS011;29696;55.698;37.460;2023-07-28T07:01:09;14.55;;;10.75;;
44026;SDS011;29696;55.698;37.460;2023-07-28T07:03:37;11.00;;;9.45;;
44026;SDS011;29696;55.698;37.460;2023-07-28T07:06:03;15.00;;;9.27;;
44026;SDS011;29696;55.698;37.460;2023-07-28T07:08:30;10.27;;;9.20;;
44026;SDS011;29696;55.698;37.460;2023-07-28T07:10:56;10.88;;;9.13;;
44026;SDS011;29696;55.698;37.460;2023-07-28T07:13:22;15.68;;;9.93;;
44026;SDS011;29696;55.698;37.460;2023-07-28T07:15:49;10.50;;;9.20;;
44026;SDS011;29696;55.698;37.460;2023-07-28T07:18:15;13.65;;;10.13;;
44026;SDS011;29696;55.698;37.460;2023-07-28T07:20:41;13.85;;;10.48;;
44026;SDS011;29696;55.698;37.460;2023-07-28T07:23:08;14.40;;;11.15;;
44026;SDS011;29696;55.698;37.460;2023-07-28T07:25:59;15.52;;;10.73;;
44026;SDS011;29696;55.698;37.460;2023-07-28T07:28:25;10.95;;;9.80;;
44026;SDS011;29696;55.698;37.460;2023-07-28T07:30:54;12.80;;;11.50;;
44026;SDS011;29696;55.698;37.460;2023-07-28T07:33:21;13.85;;;12.27;;
44026;SDS011;29696;55.698;37.460;2023-07-28T07:35:47;17.92;;;11.13;;
44026;SDS011;29696;55.698;37.460;2023-07-28T07:38:14;15.85;;;11.90;;
44026;SDS011;29696;55.698;37.460;2023-07-28T07:40:40;18.77;;;12.27;;
44026;SDS011;29696;55.698;37.460;2023-07-28T07:43:06;13.70;;;11.30;;
44026;SDS011;29696;55.698;37.460;2023-07-28T07:45:33;15.70;;;11.95;;
44026;SDS011;29696;55.698;37.460;2023-07-28T07:47:59;19.50;;;10.80;;
44026;SDS011;29696;55.698;37.460;2023-07-28T07:50:26;11.57;;;10.00;;
44026;SDS011;29696;55.698;37.460;2023-07-28T07:52:52;13.75;;;9.10;;
44026;SDS011;29696;55.698;37.460;2023-07-28T07:55:19;11.52;;;9.40;;
44026;SDS011;29696;55.698;37.460;2023-07-28T07:57:46;18.83;;;11.40;;
44026;SDS011;29696;55.698;37.460;2023-07-28T08:00:13;12.63;;;9.90;;
44026;SDS011;29696;55.698;37.460;2023-07-28T08:02:39;13.45;;;10.55;;
44026;SDS011;29696;55.698;37.460;2023-07-28T08:05:06;12.10;;;8.73;;
44026;SDS011;29696;55.698;37.460;2023-07-28T08:07:33;14.95;;;9.32;;
44026;SDS011;29696;55.698;37.460;2023-07-28T08:10:00;9.32;;;5.85;;
44026;SDS011;29696;55.698;37.460;2023-07-28T08:12:26;9.77;;;6.30;;
44026;SDS011;29696;55.698;37.460;2023-07-28T08:14:53;8.13;;;6.30;;
44026;SDS011;29696;55.698;37.460;2023-07-28T08:17:20;7.53;;;6.10;;
44026;SDS011;29696;55.698;37.460;2023-07-28T08:19:46;9.18;;;5.93;;
44026;SDS011;29696;55.698;37.460;2023-07-28T08:22:12;13.93;;;11.05;;
44026;SDS011;29696;55.698;37.460;2023-07-28T08:24:39;7.75;;;4.72;;
44026;SDS011;29696;55.698;37.460;2023-07-28T08:27:05;5.75;;;5.05;;
44026;SDS011;29696;55.698;37.460;2023-07-28T08:29:32;6.35;;;4.78;;
44026;SDS011;29696;55.698;37.460;2023-07-28T08:31:58;6.22;;;4.50;;
44026;SDS011;29696;55.698;37.460;2023-07-28T08:34:24;6.60;;;4.82;;
44026;SDS011;29696;55.698;37.460;2023-07-28T08:36:51;5.80;;;4.60;;
44026;SDS011;29696;55.698;37.460;2023-07-28T08:39:17;5.85;;;4.95;;
44026;SDS011;29696;55.698;37.460;2023-07-28T08:41:44;6.25;;;5.75;;
44026;SDS011;29696;55.698;37.460;2023-07-28T08:44:10;6.25;;;5.50;;
44026;SDS011;29696;55.698;37.460;2023-07-28T08:46:37;7.45;;;5.70;;
44026;SDS011;29696;55.698;37.460;2023-07-28T08:49:04;6.55;;;4.75;;
44026;SDS011;29696;55.698;37.460;2023-07-28T08:51:30;6.82;;;6.13;;
44026;SDS011;29696;55.698;37.460;2023-07-28T08:53:57;7.50;;;6.13;;
44026;SDS011;29696;55.698;37.460;2023-07-28T08:56:23;7.78;;;5.78;;
44026;SDS011;29696;55.698;37.460;2023-07-28T08:58:56;7.20;;;6.43;;
44026;SDS011;29696;55.698;37.460;2023-07-28T09:01:25;7.32;;;6.05;;
44026;SDS011;29696;55.698;37.460;2023-07-28T09:03:51;7.13;;;6.25;;
44026;SDS011;29696;55.698;37.460;2023-07-28T09:06:18;8.27;;;7.32;;
44026;SDS011;29696;55.698;37.460;2023-07-28T09:08:45;9.93;;;6.80;;
44026;SDS011;29696;55.698;37.460;2023-07-28T09:11:12;8.43;;;7.47;;
44026;SDS011;29696;55.698;37.460;2023-07-28T09:13:40;8.70;;;7.60;;
44026;SDS011;29696;55.698;37.460;2023-07-28T09:16:17;9.77;;;7.55;;
44026;SDS011;29696;55.698;37.460;2023-07-28T09:18:44;10.82;;;8.50;;
44026;SDS011;29696;55.698;37.460;2023-07-28T09:21:20;9.10;;;7.15;;
44026;SDS011;29696;55.698;37.460;2023-07-28T09:23:47;6.95;;;6.35;;
44026;SDS011;29696;55.698;37.460;2023-07-28T09:26:15;6.72;;;6.03;;
44026;SDS011;29696;55.698;37.460;2023-07-28T09:28:42;8.98;;;6.97;;
44026;SDS011;29696;55.698;37.460;2023-07-28T09:31:09;13.00;;;11.30;;
44026;SDS011;29696;55.698;37.460;2023-07-28T09:33:36;10.40;;;9.32;;
44026;SDS011;29696;55.698;37.460;2023-07-28T09:36:10;8.55;;;7.43;;
44026;SDS011;29696;55.698;37.460;2023-07-28T09:38:39;8.85;;;8.02;;
44026;SDS011;29696;55.698;37.460;2023-07-28T09:41:10;7.70;;;6.97;;
44026;SDS011;29696;55.698;37.460;2023-07-28T09:43:38;8.05;;;7.18;;
44026;SDS011;29696;55.698;37.460;2023-07-28T09:46:07;7.82;;;7.07;;
44026;SDS011;29696;55.698;37.460;2023-07-28T09:48:36;8.63;;;7.72;;
44026;SDS011;29696;55.698;37.460;2023-07-28T09:51:38;8.93;;;7.72;;
44026;SDS011;29696;55.698;37.460;2023-07-28T09:54:07;11.13;;;8.23;;
44026;SDS011;29696;55.698;37.460;2023-07-28T09:56:45;10.98;;;8.95;;
44026;SDS011;29696;55.698;37.460;2023-07-28T09:59:13;12.07;;;10.20;;
44026;SDS011;29696;55.698;37.460;2023-07-28T10:01:43;10.98;;;9.88;;
44026;SDS011;29696;55.698;37.460;2023-07-28T10:04:11;12.18;;;9.00;;
44026;SDS011;29696;55.698;37.460;2023-07-28T10:06:37;9.60;;;8.50;;
44026;SDS011;29696;55.698;37.460;2023-07-28T10:09:04;12.05;;;10.43;;
44026;SDS011;29696;55.698;37.460;2023-07-28T10:11:31;13.82;;;10.43;;
44026;SDS011;29696;55.698;37.460;2023-07-28T10:13:58;10.55;;;9.55;;
44026;SDS011;29696;55.698;37.460;2023-07-28T10:16:31;19.85;;;16.13;;
44026;SDS011;29696;55.698;37.460;2023-07-28T10:19:04;12.45;;;10.68;;
44026;SDS011;29696;55.698;37.460;2023-07-28T10:21:31;11.00;;;9.57;;
44026;SDS011;29696;55.698;37.460;2023-07-28T10:24:06;18.60;;;16.63;;
44026;SDS011;29696;55.698;37.460;2023-07-28T10:26:36;13.43;;;11.27;;
44026;SDS011;29696;55.698;37.460;2023-07-28T10:29:13;12.18;;;10.90;;
44026;SDS011;29696;55.698;37.460;2023-07-28T10:31:53;10.98;;;9.93;;
44026;SDS011;29696;55.698;37.460;2023-07-28T10:34:22;11.88;;;10.63;;
44026;SDS011;29696;55.698;37.460;2023-07-28T10:36:58;11.30;;;10.05;;
44026;SDS011;29696;55.698;37.460;2023-07-28T10:39:25;19.05;;;12.52;;
44026;SDS011;29696;55.698;37.460;2023-07-28T10:44:46;12.30;;;10.25;;
44026;SDS011;29696;55.698;37.460;2023-07-28T10:47:12;11.75;;;8.07;;
44026;SDS011;29696;55.698;37.460;2023-07-28T10:49:39;11.45;;;10.23;;
44026;SDS011;29696;55.698;37.460;2023-07-28T10:52:06;10.75;;;8.45;;
44026;SDS011;29696;55.698;37.460;2023-07-28T10:54:33;8.15;;;7.35;;
44026;SDS011;29696;55.698;37.460;2023-07-28T10:57:03;10.43;;;8.55;;
44026;SDS011;29696;55.698;37.460;2023-07-28T10:59:30;11.57;;;8.18;;
44026;SDS011;29696;55.698;37.460;2023-07-28T11:01:56;11.50;;;7.88;;
44026;SDS011;29696;55.698;37.460;2023-07-28T11:04:22;8.35;;;7.43;;
44026;SDS011;29696;55.698;37.460;2023-07-28T11:06:50;10.60;;;8.00;;
44026;SDS011;29696;55.698;37.460;2023-07-28T11:09:18;9.50;;;8.60;;
44026;SDS011;29696;55.698;37.460;2023-07-28T11:11:48;9.23;;;8.32;;
44026;SDS011;29696;55.698;37.460;2023-07-28T11:14:16;10.88;;;8.02;;
44026;SDS011;29696;55.698;37.460;2023-07-28T11:16:43;8.95;;;8.15;;
44026;SDS011;29696;55.698;37.460;2023-07-28T11:19:12;10.23;;;8.20;;
44026;SDS011;29696;55.698;37.460;2023-07-28T11:21:43;10.77;;;8.32;;
44026;SDS011;29696;55.698;37.460;2023-07-28T11:24:10;10.00;;;8.43;;
44026;SDS011;29696;55.698;37.460;2023-07-28T11:26:37;11.68;;;9.00;;
44026;SDS011;29696;55.698;37.460;2023-07-28T11:29:05;9.27;;;8.38;;
44026;SDS011;29696;55.698;37.460;2023-07-28T11:31:32;10.15;;;8.27;;
44026;SDS011;29696;55.698;37.460;2023-07-28T11:34:00;10.45;;;8.52;;
44026;SDS011;29696;55.698;37.460;2023-07-28T11:36:27;10.60;;;9.52;;
44026;SDS011;29696;55.698;37.460;2023-07-28T11:38:55;14.70;;;9.95;;
44026;SDS011;29696;55.698;37.460;2023-07-28T11:41:25;13.10;;;9.23;;
44026;SDS011;29696;55.698;37.460;2023-07-28T11:43:52;11.15;;;9.80;;
44026;SDS011;29696;55.698;37.460;2023-07-28T11:46:32;28.35;;;9.95;;
44026;SDS011;29696;55.698;37.460;2023-07-28T11:49:21;11.50;;;9.40;;
44026;SDS011;29696;55.698;37.460;2023-07-28T11:51:51;10.88;;;9.63;;
44026;SDS011;29696;55.698;37.460;2023-07-28T11:54:23;10.48;;;9.48;;
44026;SDS011;29696;55.698;37.460;2023-07-28T11:56:51;9.70;;;7.78;;
44026;SDS011;29696;55.698;37.460;2023-07-28T11:59:21;12.25;;;9.25;;
44026;SDS011;29696;55.698;37.460;2023-07-28T12:01:51;10.77;;;9.68;;
44026;SDS011;29696;55.698;37.460;2023-07-28T12:04:29;10.77;;;9.57;;
44026;SDS011;29696;55.698;37.460;2023-07-28T12:07:03;11.30;;;9.18;;
44026;SDS011;29696;55.698;37.460;2023-07-28T12:15:18;6.13;;;5.40;;
44026;SDS011;29696;55.698;37.460;2023-07-28T12:20:53;5.07;;;4.15;;
44026;SDS011;29696;55.698;37.460;2023-07-28T12:23:20;4.82;;;3.85;;
44026;SDS011;29696;55.698;37.460;2023-07-28T12:25:47;6.13;;;4.10;;
44026;SDS011;29696;55.698;37.460;2023-07-28T12:28:14;5.10;;;3.22;;
44026;SDS011;29696;55.698;37.460;2023-07-28T12:30:40;5.70;;;3.15;;
44026;SDS011;29696;55.698;37.460;2023-07-28T12:33:07;4.63;;;3.78;;
44026;SDS011;29696;55.698;37.460;2023-07-28T12:35:34;5.65;;;4.70;;
44026;SDS011;29696;55.698;37.460;2023-07-28T12:38:02;4.75;;;3.67;;
44026;SDS011;29696;55.698;37.460;2023-07-28T12:40:33;6.07;;;4.20;;
44026;SDS011;29696;55.698;37.460;2023-07-28T12:43:02;6.82;;;5.78;;
44026;SDS011;29696;55.698;37.460;2023-07-28T12:45:30;6.60;;;4.40;;
44026;SDS011;29696;55.698;37.460;2023-07-28T12:47:56;9.75;;;4.85;;
44026;SDS011;29696;55.698;37.460;2023-07-28T12:50:23;6.40;;;4.18;;
44026;SDS011;29696;55.698;37.460;2023-07-28T12:52:50;6.38;;;4.57;;
44026;SDS011;29696;55.698;37.460;2023-07-28T12:55:18;4.95;;;3.92;;
44026;SDS011;29696;55.698;37.460;2023-07-28T12:57:46;9.20;;;6.75;;
44026;SDS011;29696;55.698;37.460;2023-07-28T13:00:15;8.57;;;7.05;;
44026;SDS011;29696;55.698;37.460;2023-07-28T13:02:44;5.50;;;5.00;;
44026;SDS011;29696;55.698;37.460;2023-07-28T13:05:12;8.07;;;4.93;;
44026;SDS011;29696;55.698;37.460;2023-07-28T13:07:40;4.90;;;4.40;;
44026;SDS011;29696;55.698;37.460;2023-07-28T13:10:07;5.93;;;4.13;;
44026;SDS011;29696;55.698;37.460;2023-07-28T13:12:37;5.97;;;3.95;;
44026;SDS011;29696;55.698;37.460;2023-07-28T13:15:04;5.45;;;3.97;;
44026;SDS011;29696;55.698;37.460;2023-07-28T13:17:33;6.38;;;4.15;;
44026;SDS011;29696;55.698;37.460;2023-07-28T13:19:59;6.40;;;4.22;;
44026;SDS011;29696;55.698;37.460;2023-07-28T13:22:26;3.67;;;3.00;;
44026;SDS011;29696;55.698;37.460;2023-07-28T13:24:53;5.82;;;3.80;;
44026;SDS011;29696;55.698;37.460;2023-07-28T13:27:20;3.33;;;2.88;;
44026;SDS011;29696;55.698;37.460;2023-07-28T13:29:46;9.45;;;3.00;;
44026;SDS011;29696;55.698;37.460;2023-07-28T13:32:22;4.63;;;3.92;;
44026;SDS011;29696;55.698;37.460;2023-07-28T13:34:50;5.22;;;3.25;;
44026;SDS011;29696;55.698;37.460;2023-07-28T13:37:18;5.80;;;3.90;;
44026;SDS011;29696;55.698;37.460;2023-07-28T13:39:45;3.97;;;3.30;;
44026;SDS011;29696;55.698;37.460;2023-07-28T13:42:12;5.18;;;2.80;;
44026;SDS011;29696;55.698;37.460;2023-07-28T13:44:42;7.78;;;3.55;;
44026;SDS011;29696;55.698;37.460;2023-07-28T13:47:09;9.27;;;3.40;;
44026;SDS011;29696;55.698;37.460;2023-07-28T13:49:35;7.20;;;3.88;;
44026;SDS011;29696;55.698;37.460;2023-07-28T13:52:03;4.72;;;3.25;;
44026;SDS011;29696;55.698;37.460;2023-07-28T13:54:30;6.63;;;5.50;;
44026;SDS011;29696;55.698;37.460;2023-07-28T13:56:56;14.38;;;9.75;;
44026;SDS011;29696;55.698;37.460;2023-07-28T13:59:23;9.02;;;6.60;;
44026;SDS011;29696;55.698;37.460;2023-07-28T14:01:49;8.07;;;4.60;;
44026;SDS011;29696;55.698;37.460;2023-07-28T14:04:17;7.72;;;3.88;;
44026;SDS011;29696;55.698;37.460;2023-07-28T14:06:43;6.50;;;4.65;;
44026;SDS011;29696;55.698;37.460;2023-07-28T14:09:10;10.50;;;4.72;;
44026;SDS011;29696;55.698;37.460;2023-07-28T14:11:36;5.53;;;4.28;;
44026;SDS011;29696;55.698;37.460;2023-07-28T14:14:02;5.00;;;3.47;;
44026;SDS011;29696;55.698;37.460;2023-07-28T14:16:29;5.85;;;3.28;;
44026;SDS011;29696;55.698;37.460;2023-07-28T14:18:56;6.70;;;3.05;;
44026;SDS011;29696;55.698;37.460;2023-07-28T14:21:22;7.43;;;3.47;;
44026;SDS011;29696;55.698;37.460;2023-07-28T14:23:49;3.15;;;2.65;;
44026;SDS011;29696;55.698;37.460;2023-07-28T14:26:15;4.03;;;3.38;;
44026;SDS011;29696;55.698;37.460;2023-07-28T14:28:42;20.98;;;10.60;;
44026;SDS011;29696;55.698;37.460;2023-07-28T14:31:08;16.20;;;14.40;;
44026;SDS011;29696;55.698;37.460;2023-07-28T14:33:35;15.93;;;12.32;;
44026;SDS011;29696;55.698;37.460;2023-07-28T14:36:01;16.55;;;14.85;;
44026;SDS011;29696;55.698;37.460;2023-07-28T14:38:28;13.02;;;11.60;;
44026;SDS011;29696;55.698;37.460;2023-07-28T14:40:54;18.42;;;10.45;;
44026;SDS011;29696;55.698;37.460;2023-07-28T14:43:21;10.57;;;8.85;;
44026;SDS011;29696;55.698;37.460;2023-07-28T14:45:49;10.63;;;5.00;;